sensor_id;sensor_type;location;lat;lon;timestamp;temperature;humidity
6052;DHT22;3054;51.204;4.430;2022-08-03T00:01:04;25.38;66.44
6052;DHT22;3054;51.204;4.430;2022-08-03T00:03:31;25.33;66.43
6052;DHT22;3054;51.204;4.430;2022-08-03T00:05:59;25.31;66.40
6052;DHT22;3054;51.204;4.430;2022-08-03T00:08:26;25.25;66.37
6052;DHT22;3054;51.204;4.430;2022-08-03T00:10:53;25.23;66.33
6052;DHT22;3054;51.204;4.430;2022-08-03T00:13:20;25.20;66.32
6052;DHT22;3054;51.204;4.430;2022-08-03T00:15:47;25.14;66.39
6052;DHT22;3054;51.204;4.430;2022-08-03T00:18:14;25.13;66.36
6052;DHT22;3054;51.204;4.430;2022-08-03T00:20:41;25.14;66.32
6052;DHT22;3054;51.204;4.430;2022-08-03T00:23:09;25.14;66.26
6052;DHT22;3054;51.204;4.430;2022-08-03T00:25:37;25.14;66.20
6052;DHT22;3054;51.204;4.430;2022-08-03T00:28:04;25.16;66.07
6052;DHT22;3054;51.204;4.430;2022-08-03T00:30:32;25.15;65.98
6052;DHT22;3054;51.204;4.430;2022-08-03T00:32:59;25.17;65.88
6052;DHT22;3054;51.204;4.430;2022-08-03T00:35:26;25.17;65.74
6052;DHT22;3054;51.204;4.430;2022-08-03T00:37:53;25.15;65.69
6052;DHT22;3054;51.204;4.430;2022-08-03T00:40:22;25.15;65.57
6052;DHT22;3054;51.204;4.430;2022-08-03T00:42:51;25.15;65.50
6052;DHT22;3054;51.204;4.430;2022-08-03T00:45:20;25.13;65.36
6052;DHT22;3054;51.204;4.430;2022-08-03T00:47:47;25.08;65.37
6052;DHT22;3054;51.204;4.430;2022-08-03T00:50:15;25.09;65.24
6052;DHT22;3054;51.204;4.430;2022-08-03T00:52:42;25.07;65.21
6052;DHT22;3054;51.204;4.430;2022-08-03T00:55:10;25.04;65.17
6052;DHT22;3054;51.204;4.430;2022-08-03T00:57:38;25.04;65.15
6052;DHT22;3054;51.204;4.430;2022-08-03T01:00:07;25.02;65.12
6052;DHT22;3054;51.204;4.430;2022-08-03T01:02:35;25.00;65.06
6052;DHT22;3054;51.204;4.430;2022-08-03T01:05:02;25.00;65.03
6052;DHT22;3054;51.204;4.430;2022-08-03T01:07:40;24.97;65.04
6052;DHT22;3054;51.204;4.430;2022-08-03T01:10:13;24.98;64.96
6052;DHT22;3054;51.204;4.430;2022-08-03T01:12:49;24.93;64.96
6052;DHT22;3054;51.204;4.430;2022-08-03T01:15:21;24.89;64.96
6052;DHT22;3054;51.204;4.430;2022-08-03T01:17:54;24.78;65.11
6052;DHT22;3054;51.204;4.430;2022-08-03T01:20:23;24.70;65.24
6052;DHT22;3054;51.204;4.430;2022-08-03T01:23:02;24.66;65.31
6052;DHT22;3054;51.204;4.430;2022-08-03T01:25:39;24.57;65.50
6052;DHT22;3054;51.204;4.430;2022-08-03T01:28:24;24.50;65.52
6052;DHT22;3054;51.204;4.430;2022-08-03T01:30:58;24.47;65.66
6052;DHT22;3054;51.204;4.430;2022-08-03T01:33:46;24.49;65.63
6052;DHT22;3054;51.204;4.430;2022-08-03T01:36:18;24.49;65.58
6052;DHT22;3054;51.204;4.430;2022-08-03T01:38:52;24.50;65.53
6052;DHT22;3054;51.204;4.430;2022-08-03T01:41:21;24.49;65.49
6052;DHT22;3054;51.204;4.430;2022-08-03T01:43:52;24.51;65.46
6052;DHT22;3054;51.204;4.430;2022-08-03T01:46:22;24.48;65.39
6052;DHT22;3054;51.204;4.430;2022-08-03T01:48:50;24.50;65.33
6052;DHT22;3054;51.204;4.430;2022-08-03T01:51:19;24.48;65.31
6052;DHT22;3054;51.204;4.430;2022-08-03T01:53:47;24.47;65.24
6052;DHT22;3054;51.204;4.430;2022-08-03T01:56:16;24.41;65.29
6052;DHT22;3054;51.204;4.430;2022-08-03T01:58:44;24.36;65.33
6052;DHT22;3054;51.204;4.430;2022-08-03T02:01:15;24.26;65.46
6052;DHT22;3054;51.204;4.430;2022-08-03T02:03:44;24.18;65.58
6052;DHT22;3054;51.204;4.430;2022-08-03T02:06:13;24.12;65.70
6052;DHT22;3054;51.204;4.430;2022-08-03T02:08:42;24.11;65.69
6052;DHT22;3054;51.204;4.430;2022-08-03T02:11:11;24.08;65.74
6052;DHT22;3054;51.204;4.430;2022-08-03T02:13:38;24.04;65.82
6052;DHT22;3054;51.204;4.430;2022-08-03T02:16:06;24.06;65.78
6052;DHT22;3054;51.204;4.430;2022-08-03T02:18:34;24.08;65.69
6052;DHT22;3054;51.204;4.430;2022-08-03T02:21:06;24.04;65.75
6052;DHT22;3054;51.204;4.430;2022-08-03T02:23:35;24.02;65.75
6052;DHT22;3054;51.204;4.430;2022-08-03T02:26:03;24.03;65.77
6052;DHT22;3054;51.204;4.430;2022-08-03T02:28:34;24.01;65.77
6052;DHT22;3054;51.204;4.430;2022-08-03T02:31:04;24.03;65.75
6052;DHT22;3054;51.204;4.430;2022-08-03T02:33:38;24.03;65.72
6052;DHT22;3054;51.204;4.430;2022-08-03T02:36:10;24.03;65.75
6052;DHT22;3054;51.204;4.430;2022-08-03T02:38:42;24.02;65.71
6052;DHT22;3054;51.204;4.430;2022-08-03T02:41:14;24.02;65.75
6052;DHT22;3054;51.204;4.430;2022-08-03T02:43:42;24.03;65.69
6052;DHT22;3054;51.204;4.430;2022-08-03T02:46:12;24.01;65.72
6052;DHT22;3054;51.204;4.430;2022-08-03T02:48:40;24.01;65.72
6052;DHT22;3054;51.204;4.430;2022-08-03T02:51:10;23.98;65.73
6052;DHT22;3054;51.204;4.430;2022-08-03T02:53:38;23.95;65.78
6052;DHT22;3054;51.204;4.430;2022-08-03T02:56:06;23.95;65.80
6052;DHT22;3054;51.204;4.430;2022-08-03T02:58:35;23.91;65.86
6052;DHT22;3054;51.204;4.430;2022-08-03T03:01:03;23.87;65.88
6052;DHT22;3054;51.204;4.430;2022-08-03T03:03:31;23.87;65.90
6052;DHT22;3054;51.204;4.430;2022-08-03T03:05:58;23.85;65.98
6052;DHT22;3054;51.204;4.430;2022-08-03T03:08:27;23.87;65.99
6052;DHT22;3054;51.204;4.430;2022-08-03T03:10:56;23.92;65.91
6052;DHT22;3054;51.204;4.430;2022-08-03T03:13:24;23.88;65.92
6052;DHT22;3054;51.204;4.430;2022-08-03T03:15:53;23.84;66.01
6052;DHT22;3054;51.204;4.430;2022-08-03T03:18:22;23.81;66.04
6052;DHT22;3054;51.204;4.430;2022-08-03T03:20:51;23.73;66.17
6052;DHT22;3054;51.204;4.430;2022-08-03T03:23:20;23.67;66.36
6052;DHT22;3054;51.204;4.430;2022-08-03T03:25:49;23.64;66.42
6052;DHT22;3054;51.204;4.430;2022-08-03T03:28:17;23.59;66.53
6052;DHT22;3054;51.204;4.430;2022-08-03T03:30:44;23.55;66.65
6052;DHT22;3054;51.204;4.430;2022-08-03T03:33:11;23.54;66.72
6052;DHT22;3054;51.204;4.430;2022-08-03T03:35:39;23.50;66.82
6052;DHT22;3054;51.204;4.430;2022-08-03T03:38:06;23.46;66.94
6052;DHT22;3054;51.204;4.430;2022-08-03T03:40:34;23.50;66.91
6052;DHT22;3054;51.204;4.430;2022-08-03T03:43:02;23.47;66.96
6052;DHT22;3054;51.204;4.430;2022-08-03T03:45:30;23.47;67.03
6052;DHT22;3054;51.204;4.430;2022-08-03T03:47:58;23.52;67.01
6052;DHT22;3054;51.204;4.430;2022-08-03T03:50:26;23.54;67.05
6052;DHT22;3054;51.204;4.430;2022-08-03T03:52:53;23.55;66.96
6052;DHT22;3054;51.204;4.430;2022-08-03T03:55:20;23.55;66.97
6052;DHT22;3054;51.204;4.430;2022-08-03T03:57:47;23.53;66.98
6052;DHT22;3054;51.204;4.430;2022-08-03T04:00:17;23.50;67.04
6052;DHT22;3054;51.204;4.430;2022-08-03T04:02:44;23.50;67.03
6052;DHT22;3054;51.204;4.430;2022-08-03T04:05:12;23.46;67.19
6052;DHT22;3054;51.204;4.430;2022-08-03T04:07:58;23.45;67.15
6052;DHT22;3054;51.204;4.430;2022-08-03T04:13:39;23.40;67.28
6052;DHT22;3054;51.204;4.430;2022-08-03T04:16:12;23.40;67.33
6052;DHT22;3054;51.204;4.430;2022-08-03T04:18:40;23.37;67.36
6052;DHT22;3054;51.204;4.430;2022-08-03T04:21:09;23.38;67.39
6052;DHT22;3054;51.204;4.430;2022-08-03T04:23:40;23.39;67.43
6052;DHT22;3054;51.204;4.430;2022-08-03T04:26:11;23.41;67.41
6052;DHT22;3054;51.204;4.430;2022-08-03T04:28:42;23.45;67.33
6052;DHT22;3054;51.204;4.430;2022-08-03T04:31:12;23.44;67.27
6052;DHT22;3054;51.204;4.430;2022-08-03T04:33:40;23.41;67.28
6052;DHT22;3054;51.204;4.430;2022-08-03T04:36:14;23.35;67.45
6052;DHT22;3054;51.204;4.430;2022-08-03T04:38:46;23.34;67.48
6052;DHT22;3054;51.204;4.430;2022-08-03T04:41:19;23.36;67.46
6052;DHT22;3054;51.204;4.430;2022-08-03T04:43:47;23.39;67.51
6052;DHT22;3054;51.204;4.430;2022-08-03T04:46:16;23.38;67.49
6052;DHT22;3054;51.204;4.430;2022-08-03T04:48:44;23.40;67.42
6052;DHT22;3054;51.204;4.430;2022-08-03T04:51:12;23.42;67.45
6052;DHT22;3054;51.204;4.430;2022-08-03T04:53:39;23.45;67.36
6052;DHT22;3054;51.204;4.430;2022-08-03T04:56:06;23.49;67.30
6052;DHT22;3054;51.204;4.430;2022-08-03T04:58:33;23.49;67.27
6052;DHT22;3054;51.204;4.430;2022-08-03T05:01:00;23.47;67.30
6052;DHT22;3054;51.204;4.430;2022-08-03T05:03:29;23.51;67.23
6052;DHT22;3054;51.204;4.430;2022-08-03T05:05:57;23.59;67.06
6052;DHT22;3054;51.204;4.430;2022-08-03T05:08:23;23.67;66.89
6052;DHT22;3054;51.204;4.430;2022-08-03T05:10:50;23.73;66.74
6052;DHT22;3054;51.204;4.430;2022-08-03T05:13:17;23.82;66.54
6052;DHT22;3054;51.204;4.430;2022-08-03T05:15:46;23.89;66.41
6052;DHT22;3054;51.204;4.430;2022-08-03T05:18:14;23.98;66.24
6052;DHT22;3054;51.204;4.430;2022-08-03T05:20:42;24.01;66.07
6052;DHT22;3054;51.204;4.430;2022-08-03T05:23:09;24.05;65.94
6052;DHT22;3054;51.204;4.430;2022-08-03T05:25:36;24.08;65.85
6052;DHT22;3054;51.204;4.430;2022-08-03T05:28:03;24.12;65.75
6052;DHT22;3054;51.204;4.430;2022-08-03T05:30:30;24.17;65.65
6052;DHT22;3054;51.204;4.430;2022-08-03T05:32:57;24.27;65.44
6052;DHT22;3054;51.204;4.430;2022-08-03T05:35:24;24.31;65.33
6052;DHT22;3054;51.204;4.430;2022-08-03T05:37:54;24.36;65.14
6052;DHT22;3054;51.204;4.430;2022-08-03T05:40:21;24.45;64.98
6052;DHT22;3054;51.204;4.430;2022-08-03T05:42:49;24.54;64.75
6052;DHT22;3054;51.204;4.430;2022-08-03T05:45:16;24.58;64.56
6052;DHT22;3054;51.204;4.430;2022-08-03T05:47:43;24.68;64.39
6052;DHT22;3054;51.204;4.430;2022-08-03T05:50:10;24.72;64.21
6052;DHT22;3054;51.204;4.430;2022-08-03T05:52:37;24.79;64.09
6052;DHT22;3054;51.204;4.430;2022-08-03T05:55:06;24.89;63.85
6052;DHT22;3054;51.204;4.430;2022-08-03T05:57:33;24.94;63.66
6052;DHT22;3054;51.204;4.430;2022-08-03T06:00:01;25.03;63.46
6052;DHT22;3054;51.204;4.430;2022-08-03T06:02:28;25.12;63.26
6052;DHT22;3054;51.204;4.430;2022-08-03T06:04:55;25.21;63.03
6052;DHT22;3054;51.204;4.430;2022-08-03T06:07:22;25.22;62.89
6052;DHT22;3054;51.204;4.430;2022-08-03T06:09:49;25.31;62.71
6052;DHT22;3054;51.204;4.430;2022-08-03T06:12:17;25.43;62.46
6052;DHT22;3054;51.204;4.430;2022-08-03T06:14:44;25.51;62.18
6052;DHT22;3054;51.204;4.430;2022-08-03T06:17:11;25.66;61.88
6052;DHT22;3054;51.204;4.430;2022-08-03T06:19:38;25.76;61.61
6052;DHT22;3054;51.204;4.430;2022-08-03T06:22:05;25.80;61.41
6052;DHT22;3054;51.204;4.430;2022-08-03T06:24:32;25.94;61.07
6052;DHT22;3054;51.204;4.430;2022-08-03T06:26:59;26.07;60.78
6052;DHT22;3054;51.204;4.430;2022-08-03T06:29:27;26.11;60.60
6052;DHT22;3054;51.204;4.430;2022-08-03T06:31:54;26.17;60.37
6052;DHT22;3054;51.204;4.430;2022-08-03T06:34:20;26.30;60.08
6052;DHT22;3054;51.204;4.430;2022-08-03T06:36:47;26.42;59.67
6052;DHT22;3054;51.204;4.430;2022-08-03T06:39:15;26.54;59.39
6052;DHT22;3054;51.204;4.430;2022-08-03T06:41:43;26.55;59.21
6052;DHT22;3054;51.204;4.430;2022-08-03T06:44:10;26.54;58.97
6052;DHT22;3054;51.204;4.430;2022-08-03T06:46:39;26.63;58.86
6052;DHT22;3054;51.204;4.430;2022-08-03T06:49:06;26.70;58.63
6052;DHT22;3054;51.204;4.430;2022-08-03T06:51:33;26.81;58.33
6052;DHT22;3054;51.204;4.430;2022-08-03T06:54:00;26.86;58.14
6052;DHT22;3054;51.204;4.430;2022-08-03T06:56:27;26.98;57.88
6052;DHT22;3054;51.204;4.430;2022-08-03T06:58:54;27.07;57.61
6052;DHT22;3054;51.204;4.430;2022-08-03T07:01:21;27.13;57.48
6052;DHT22;3054;51.204;4.430;2022-08-03T07:03:52;27.23;57.30
6052;DHT22;3054;51.204;4.430;2022-08-03T07:06:20;27.38;57.06
6052;DHT22;3054;51.204;4.430;2022-08-03T07:08:47;27.54;56.70
6052;DHT22;3054;51.204;4.430;2022-08-03T07:11:18;27.64;56.42
6052;DHT22;3054;51.204;4.430;2022-08-03T07:13:45;27.64;56.17
6052;DHT22;3054;51.204;4.430;2022-08-03T07:16:12;27.59;56.13
6052;DHT22;3054;51.204;4.430;2022-08-03T07:18:39;27.63;56.05
6052;DHT22;3054;51.204;4.430;2022-08-03T07:21:07;27.66;56.00
6052;DHT22;3054;51.204;4.430;2022-08-03T07:23:35;27.72;55.81
6052;DHT22;3054;51.204;4.430;2022-08-03T07:26:02;27.81;55.65
6052;DHT22;3054;51.204;4.430;2022-08-03T07:28:29;27.93;55.36
6052;DHT22;3054;51.204;4.430;2022-08-03T07:30:56;28.04;55.12
6052;DHT22;3054;51.204;4.430;2022-08-03T07:33:23;28.13;54.97
6052;DHT22;3054;51.204;4.430;2022-08-03T07:35:50;28.19;54.69
6052;DHT22;3054;51.204;4.430;2022-08-03T07:38:19;28.26;54.58
6052;DHT22;3054;51.204;4.430;2022-08-03T07:40:45;28.38;54.24
6052;DHT22;3054;51.204;4.430;2022-08-03T07:43:12;28.40;54.04
6052;DHT22;3054;51.204;4.430;2022-08-03T07:45:39;28.41;53.91
6052;DHT22;3054;51.204;4.430;2022-08-03T07:48:06;28.41;53.84
6052;DHT22;3054;51.204;4.430;2022-08-03T07:50:33;28.48;53.68
6052;DHT22;3054;51.204;4.430;2022-08-03T07:52:59;28.55;53.39
6052;DHT22;3054;51.204;4.430;2022-08-03T07:55:28;28.55;53.31
6052;DHT22;3054;51.204;4.430;2022-08-03T07:58:03;28.61;53.23
6052;DHT22;3054;51.204;4.430;2022-08-03T08:00:30;28.76;52.95
6052;DHT22;3054;51.204;4.430;2022-08-03T08:02:57;28.86;52.62
6052;DHT22;3054;51.204;4.430;2022-08-03T08:05:24;28.95;52.39
6052;DHT22;3054;51.204;4.430;2022-08-03T08:07:50;29.13;52.04
6052;DHT22;3054;51.204;4.430;2022-08-03T08:10:18;29.27;51.70
6052;DHT22;3054;51.204;4.430;2022-08-03T08:12:49;29.50;51.27
6052;DHT22;3054;51.204;4.430;2022-08-03T08:15:16;29.72;50.70
6052;DHT22;3054;51.204;4.430;2022-08-03T08:17:44;29.94;50.24
6052;DHT22;3054;51.204;4.430;2022-08-03T08:20:15;30.05;49.87
6052;DHT22;3054;51.204;4.430;2022-08-03T08:22:42;30.10;49.60
6052;DHT22;3054;51.204;4.430;2022-08-03T08:25:09;30.08;49.33
6052;DHT22;3054;51.204;4.430;2022-08-03T08:27:40;30.06;49.32
6052;DHT22;3054;51.204;4.430;2022-08-03T08:30:11;30.26;48.90
6052;DHT22;3054;51.204;4.430;2022-08-03T08:32:38;30.36;48.53
6052;DHT22;3054;51.204;4.430;2022-08-03T08:35:06;30.47;48.25
6052;DHT22;3054;51.204;4.430;2022-08-03T08:37:33;30.60;47.95
6052;DHT22;3054;51.204;4.430;2022-08-03T08:40:01;30.83;47.50
6052;DHT22;3054;51.204;4.430;2022-08-03T08:42:27;30.95;47.18
6052;DHT22;3054;51.204;4.430;2022-08-03T08:44:55;31.14;46.80
6052;DHT22;3054;51.204;4.430;2022-08-03T08:47:24;31.25;46.46
6052;DHT22;3054;51.204;4.430;2022-08-03T08:49:52;31.28;46.15
6052;DHT22;3054;51.204;4.430;2022-08-03T08:52:23;31.54;45.84
6052;DHT22;3054;51.204;4.430;2022-08-03T08:54:51;31.80;45.20
6052;DHT22;3054;51.204;4.430;2022-08-03T08:57:24;31.93;44.77
6052;DHT22;3054;51.204;4.430;2022-08-03T08:59:52;32.23;44.27
6052;DHT22;3054;51.204;4.430;2022-08-03T09:02:22;32.69;43.51
6052;DHT22;3054;51.204;4.430;2022-08-03T09:04:50;33.22;42.71
6052;DHT22;3054;51.204;4.430;2022-08-03T09:07:17;34.22;41.06
6052;DHT22;3054;51.204;4.430;2022-08-03T09:09:43;35.52;39.04
6052;DHT22;3054;51.204;4.430;2022-08-03T09:12:10;36.96;37.06
6052;DHT22;3054;51.204;4.430;2022-08-03T09:14:37;38.56;35.18
6052;DHT22;3054;51.204;4.430;2022-08-03T09:17:04;40.65;32.99
6052;DHT22;3054;51.204;4.430;2022-08-03T09:19:33;42.54;31.03
6052;DHT22;3054;51.204;4.430;2022-08-03T09:22:08;44.35;29.05
6052;DHT22;3054;51.204;4.430;2022-08-03T09:24:36;45.51;27.37
6052;DHT22;3054;51.204;4.430;2022-08-03T09:27:05;47.01;26.01
6052;DHT22;3054;51.204;4.430;2022-08-03T09:29:37;48.75;24.48
6052;DHT22;3054;51.204;4.430;2022-08-03T09:32:04;50.28;22.95
6052;DHT22;3054;51.204;4.430;2022-08-03T09:34:32;51.41;21.90
6052;DHT22;3054;51.204;4.430;2022-08-03T09:36:59;52.54;20.97
6052;DHT22;3054;51.204;4.430;2022-08-03T09:39:27;53.60;20.05
6052;DHT22;3054;51.204;4.430;2022-08-03T09:42:07;54.83;19.06
6052;DHT22;3054;51.204;4.430;2022-08-03T09:44:35;55.62;18.47
6052;DHT22;3054;51.204;4.430;2022-08-03T09:47:03;56.33;17.86
6052;DHT22;3054;51.204;4.430;2022-08-03T09:49:32;56.46;17.44
6052;DHT22;3054;51.204;4.430;2022-08-03T09:52:01;57.14;16.90
6052;DHT22;3054;51.204;4.430;2022-08-03T09:54:37;57.64;16.41
6052;DHT22;3054;51.204;4.430;2022-08-03T09:57:04;58.15;16.01
6052;DHT22;3054;51.204;4.430;2022-08-03T09:59:32;58.56;15.72
6052;DHT22;3054;51.204;4.430;2022-08-03T10:02:00;59.34;15.22
6052;DHT22;3054;51.204;4.430;2022-08-03T10:04:27;59.92;14.88
6052;DHT22;3054;51.204;4.430;2022-08-03T10:07:06;60.64;14.45
6052;DHT22;3054;51.204;4.430;2022-08-03T10:09:34;60.65;14.26
6052;DHT22;3054;51.204;4.430;2022-08-03T10:12:08;61.51;13.83
6052;DHT22;3054;51.204;4.430;2022-08-03T10:14:37;62.17;13.44
6052;DHT22;3054;51.204;4.430;2022-08-03T10:17:04;62.77;13.06
6052;DHT22;3054;51.204;4.430;2022-08-03T10:19:32;62.96;12.90
6052;DHT22;3054;51.204;4.430;2022-08-03T10:22:03;63.00;12.73
6052;DHT22;3054;51.204;4.430;2022-08-03T10:24:36;63.18;12.60
6052;DHT22;3054;51.204;4.430;2022-08-03T10:27:06;63.35;12.26
6052;DHT22;3054;51.204;4.430;2022-08-03T10:29:36;63.22;12.22
6052;DHT22;3054;51.204;4.430;2022-08-03T10:32:07;63.63;11.92
6052;DHT22;3054;51.204;4.430;2022-08-03T10:34:37;64.18;11.54
6052;DHT22;3054;51.204;4.430;2022-08-03T10:37:09;64.87;11.18
6052;DHT22;3054;51.204;4.430;2022-08-03T10:39:38;65.52;10.88
6052;DHT22;3054;51.204;4.430;2022-08-03T10:42:19;66.07;10.65
6052;DHT22;3054;51.204;4.430;2022-08-03T10:44:47;65.67;10.52
6052;DHT22;3054;51.204;4.430;2022-08-03T10:47:15;64.59;9.66
6052;DHT22;3054;51.204;4.430;2022-08-03T10:49:42;62.42;9.12
6052;DHT22;3054;51.204;4.430;2022-08-03T10:52:11;59.53;9.88
6052;DHT22;3054;51.204;4.430;2022-08-03T10:54:40;57.32;10.94
6052;DHT22;3054;51.204;4.430;2022-08-03T10:57:44;54.65;12.46
6052;DHT22;3054;51.204;4.430;2022-08-03T11:00:11;52.75;13.71
6052;DHT22;3054;51.204;4.430;2022-08-03T11:03:07;50.89;15.02
6052;DHT22;3054;51.204;4.430;2022-08-03T11:05:39;49.27;16.22
6052;DHT22;3054;51.204;4.430;2022-08-03T11:08:29;48.47;16.87
6052;DHT22;3054;51.204;4.430;2022-08-03T11:10:59;47.86;17.41
6052;DHT22;3054;51.204;4.430;2022-08-03T11:13:29;47.24;17.95
6052;DHT22;3054;51.204;4.430;2022-08-03T11:16:01;46.67;18.39
6052;DHT22;3054;51.204;4.430;2022-08-03T11:18:28;46.03;18.93
6052;DHT22;3054;51.204;4.430;2022-08-03T11:20:56;45.20;19.79
6052;DHT22;3054;51.204;4.430;2022-08-03T11:23:41;44.99;20.26
6052;DHT22;3054;51.204;4.430;2022-08-03T11:26:14;44.95;20.39
6052;DHT22;3054;51.204;4.430;2022-08-03T11:28:42;45.15;20.44
6052;DHT22;3054;51.204;4.430;2022-08-03T11:31:42;47.28;20.02
6052;DHT22;3054;51.204;4.430;2022-08-03T11:34:10;50.23;18.72
6052;DHT22;3054;51.204;4.430;2022-08-03T11:39:38;54.53;15.67
6052;DHT22;3054;51.204;4.430;2022-08-03T11:42:42;57.09;14.25
6052;DHT22;3054;51.204;4.430;2022-08-03T11:45:11;58.75;13.32
6052;DHT22;3054;51.204;4.430;2022-08-03T11:47:40;59.77;12.65
6052;DHT22;3054;51.204;4.430;2022-08-03T11:50:08;60.36;12.19
6052;DHT22;3054;51.204;4.430;2022-08-03T11:52:38;60.81;11.71
6052;DHT22;3054;51.204;4.430;2022-08-03T11:55:10;60.96;11.30
6052;DHT22;3054;51.204;4.430;2022-08-03T11:57:37;58.87;10.38
6052;DHT22;3054;51.204;4.430;2022-08-03T12:00:21;54.92;11.64
6052;DHT22;3054;51.204;4.430;2022-08-03T12:03:00;51.56;13.98
6052;DHT22;3054;51.204;4.430;2022-08-03T12:05:41;48.77;16.25
6052;DHT22;3054;51.204;4.430;2022-08-03T12:08:10;46.37;18.30
6052;DHT22;3054;51.204;4.430;2022-08-03T12:10:38;44.99;19.67
6052;DHT22;3054;51.204;4.430;2022-08-03T12:13:06;44.10;20.52
6052;DHT22;3054;51.204;4.430;2022-08-03T12:15:35;43.02;21.63
6052;DHT22;3054;51.204;4.430;2022-08-03T12:18:11;42.50;22.37
6052;DHT22;3054;51.204;4.430;2022-08-03T12:20:38;41.96;22.95
6052;DHT22;3054;51.204;4.430;2022-08-03T12:23:06;41.40;23.61
6052;DHT22;3054;51.204;4.430;2022-08-03T12:25:35;40.91;24.27
6052;DHT22;3054;51.204;4.430;2022-08-03T12:28:14;40.54;24.77
6052;DHT22;3054;51.204;4.430;2022-08-03T12:30:47;40.32;25.08
6052;DHT22;3054;51.204;4.430;2022-08-03T12:33:19;40.16;25.46
6052;DHT22;3054;51.204;4.430;2022-08-03T12:35:47;39.99;25.74
6052;DHT22;3054;51.204;4.430;2022-08-03T12:38:19;39.96;25.91
6052;DHT22;3054;51.204;4.430;2022-08-03T12:41:03;39.83;26.23
6052;DHT22;3054;51.204;4.430;2022-08-03T12:43:30;39.56;26.46
6052;DHT22;3054;51.204;4.430;2022-08-03T12:46:12;39.35;26.75
6052;DHT22;3054;51.204;4.430;2022-08-03T12:49:03;39.18;27.02
6052;DHT22;3054;51.204;4.430;2022-08-03T12:51:31;38.90;27.45
6052;DHT22;3054;51.204;4.430;2022-08-03T12:54:04;38.65;27.85
6052;DHT22;3054;51.204;4.430;2022-08-03T12:56:31;38.50;28.10
6052;DHT22;3054;51.204;4.430;2022-08-03T12:58:58;38.20;28.57
6052;DHT22;3054;51.204;4.430;2022-08-03T13:01:35;38.07;28.85
6052;DHT22;3054;51.204;4.430;2022-08-03T13:04:02;37.95;29.03
6052;DHT22;3054;51.204;4.430;2022-08-03T13:06:29;37.87;29.19
6052;DHT22;3054;51.204;4.430;2022-08-03T13:09:06;37.92;29.15
6052;DHT22;3054;51.204;4.430;2022-08-03T13:11:33;37.78;29.32
6052;DHT22;3054;51.204;4.430;2022-08-03T13:14:00;37.59;29.59
6052;DHT22;3054;51.204;4.430;2022-08-03T13:16:30;37.49;29.72
6052;DHT22;3054;51.204;4.430;2022-08-03T13:18:57;37.41;29.78
6052;DHT22;3054;51.204;4.430;2022-08-03T13:21:24;37.33;29.90
6052;DHT22;3054;51.204;4.430;2022-08-03T13:23:50;37.33;30.03
6052;DHT22;3054;51.204;4.430;2022-08-03T13:26:17;37.21;30.15
6052;DHT22;3054;51.204;4.430;2022-08-03T13:28:44;37.10;30.38
6052;DHT22;3054;51.204;4.430;2022-08-03T13:31:11;37.05;30.58
6052;DHT22;3054;51.204;4.430;2022-08-03T13:33:39;36.91;30.75
6052;DHT22;3054;51.204;4.430;2022-08-03T13:36:07;36.80;30.86
6052;DHT22;3054;51.204;4.430;2022-08-03T13:38:34;36.68;30.95
6052;DHT22;3054;51.204;4.430;2022-08-03T13:41:01;36.48;31.09
6052;DHT22;3054;51.204;4.430;2022-08-03T13:43:28;36.38;31.26
6052;DHT22;3054;51.204;4.430;2022-08-03T13:45:54;36.26;31.42
6052;DHT22;3054;51.204;4.430;2022-08-03T13:48:21;36.03;31.67
6052;DHT22;3054;51.204;4.430;2022-08-03T13:50:49;35.84;31.97
6052;DHT22;3054;51.204;4.430;2022-08-03T13:53:16;35.79;32.18
6052;DHT22;3054;51.204;4.430;2022-08-03T13:55:43;35.85;32.27
6052;DHT22;3054;51.204;4.430;2022-08-03T13:58:10;35.92;32.25
6052;DHT22;3054;51.204;4.430;2022-08-03T14:00:37;35.78;32.25
6052;DHT22;3054;51.204;4.430;2022-08-03T14:03:05;35.53;32.44
6052;DHT22;3054;51.204;4.430;2022-08-03T14:05:32;35.42;32.52
6052;DHT22;3054;51.204;4.430;2022-08-03T14:08:00;35.40;32.63
6052;DHT22;3054;51.204;4.430;2022-08-03T14:10:28;35.37;32.64
6052;DHT22;3054;51.204;4.430;2022-08-03T14:12:55;35.47;32.52
6052;DHT22;3054;51.204;4.430;2022-08-03T14:15:24;35.44;32.51
6052;DHT22;3054;51.204;4.430;2022-08-03T14:17:53;35.31;32.69
6052;DHT22;3054;51.204;4.430;2022-08-03T14:20:19;35.27;32.67
6052;DHT22;3054;51.204;4.430;2022-08-03T14:22:46;35.21;32.76
6052;DHT22;3054;51.204;4.430;2022-08-03T14:25:17;35.26;32.67
6052;DHT22;3054;51.204;4.430;2022-08-03T14:27:44;35.10;32.80
6052;DHT22;3054;51.204;4.430;2022-08-03T14:30:11;35.12;32.78
6052;DHT22;3054;51.204;4.430;2022-08-03T14:32:39;35.10;32.86
6052;DHT22;3054;51.204;4.430;2022-08-03T14:35:07;35.03;32.93
6052;DHT22;3054;51.204;4.430;2022-08-03T14:37:34;34.89;33.09
6052;DHT22;3054;51.204;4.430;2022-08-03T14:40:01;34.76;33.25
6052;DHT22;3054;51.204;4.430;2022-08-03T14:42:29;34.74;33.26
6052;DHT22;3054;51.204;4.430;2022-08-03T14:44:56;34.73;33.38
6052;DHT22;3054;51.204;4.430;2022-08-03T14:47:23;34.79;33.39
6052;DHT22;3054;51.204;4.430;2022-08-03T14:49:50;34.89;33.44
6052;DHT22;3054;51.204;4.430;2022-08-03T14:52:16;35.04;33.32
6052;DHT22;3054;51.204;4.430;2022-08-03T14:54:44;35.22;33.11
6052;DHT22;3054;51.204;4.430;2022-08-03T14:57:15;35.28;32.95
6052;DHT22;3054;51.204;4.430;2022-08-03T14:59:43;35.25;33.05
6052;DHT22;3054;51.204;4.430;2022-08-03T15:02:10;35.21;33.09
6052;DHT22;3054;51.204;4.430;2022-08-03T15:04:37;35.09;33.25
6052;DHT22;3054;51.204;4.430;2022-08-03T15:07:03;34.92;33.37
6052;DHT22;3054;51.204;4.430;2022-08-03T15:09:31;34.73;33.70
6052;DHT22;3054;51.204;4.430;2022-08-03T15:11:58;34.71;33.75
6052;DHT22;3054;51.204;4.430;2022-08-03T15:14:25;34.69;33.82
6052;DHT22;3054;51.204;4.430;2022-08-03T15:16:53;34.69;33.83
6052;DHT22;3054;51.204;4.430;2022-08-03T15:19:20;34.66;33.83
6052;DHT22;3054;51.204;4.430;2022-08-03T15:21:47;34.60;33.83
6052;DHT22;3054;51.204;4.430;2022-08-03T15:24:14;34.60;33.76
6052;DHT22;3054;51.204;4.430;2022-08-03T15:26:40;34.69;33.65
6052;DHT22;3054;51.204;4.430;2022-08-03T15:29:07;34.71;33.70
6052;DHT22;3054;51.204;4.430;2022-08-03T15:31:34;34.68;33.70
6052;DHT22;3054;51.204;4.430;2022-08-03T15:34:04;34.59;33.87
6052;DHT22;3054;51.204;4.430;2022-08-03T15:36:31;34.54;33.85
6052;DHT22;3054;51.204;4.430;2022-08-03T15:38:58;34.55;33.75
6052;DHT22;3054;51.204;4.430;2022-08-03T15:41:25;34.60;33.54
6052;DHT22;3054;51.204;4.430;2022-08-03T15:43:52;34.55;33.51
6052;DHT22;3054;51.204;4.430;2022-08-03T15:46:18;34.50;33.55
6052;DHT22;3054;51.204;4.430;2022-08-03T15:48:48;34.44;33.70
6052;DHT22;3054;51.204;4.430;2022-08-03T15:51:16;34.40;33.68
6052;DHT22;3054;51.204;4.430;2022-08-03T15:53:43;34.31;33.79
6052;DHT22;3054;51.204;4.430;2022-08-03T15:56:10;34.20;33.98
6052;DHT22;3054;51.204;4.430;2022-08-03T15:58:37;34.16;34.05
6052;DHT22;3054;51.204;4.430;2022-08-03T16:01:05;34.14;34.07
6052;DHT22;3054;51.204;4.430;2022-08-03T16:03:32;34.16;34.05
6052;DHT22;3054;51.204;4.430;2022-08-03T16:06:00;34.10;33.96
6052;DHT22;3054;51.204;4.430;2022-08-03T16:08:29;33.97;34.12
6052;DHT22;3054;51.204;4.430;2022-08-03T16:10:56;33.95;34.11
6052;DHT22;3054;51.204;4.430;2022-08-03T16:13:23;33.93;34.18
6052;DHT22;3054;51.204;4.430;2022-08-03T16:15:50;33.95;34.22
6052;DHT22;3054;51.204;4.430;2022-08-03T16:18:17;33.93;34.28
6052;DHT22;3054;51.204;4.430;2022-08-03T16:20:45;33.93;34.33